sensor_id;sensor_type;location;lat;lon;timestamp;P1;durP1;ratioP1;P2;durP2;ratioP2
17820;SDS011;9035;42.554;23.188;2022-09-06T00:01:27;5.73;;;3.93;;
17820;SDS011;9035;42.554;23.188;2022-09-06T00:03:54;4.63;;;4.23;;
17820;SDS011;9035;42.554;23.188;2022-09-06T00:06:20;5.23;;;3.73;;
17820;SDS011;9035;42.554;23.188;2022-09-06T00:08:47;4.50;;;3.80;;
17820;SDS011;9035;42.554;23.188;2022-09-06T00:11:15;4.30;;;3.90;;
17820;SDS011;9035;42.554;23.188;2022-09-06T00:13:44;4.80;;;3.80;;
17820;SDS011;9035;42.554;23.188;2022-09-06T00:16:12;6.27;;;4.33;;
17820;SDS011;9035;42.554;23.188;2022-09-06T00:18:40;7.13;;;3.90;;
17820;SDS011;9035;42.554;23.188;2022-09-06T00:21:17;3.87;;;3.57;;
17820;SDS011;9035;42.554;23.188;2022-09-06T00:23:46;5.20;;;3.73;;
17820;SDS011;9035;42.554;23.188;2022-09-06T00:26:13;5.00;;;3.53;;
17820;SDS011;9035;42.554;23.188;2022-09-06T00:28:40;4.17;;;3.87;;
17820;SDS011;9035;42.554;23.188;2022-09-06T00:31:10;5.20;;;4.17;;
17820;SDS011;9035;42.554;23.188;2022-09-06T00:33:38;8.83;;;3.70;;
17820;SDS011;9035;42.554;23.188;2022-09-06T00:36:05;4.73;;;3.53;;
17820;SDS011;9035;42.554;23.188;2022-09-06T00:38:32;6.20;;;4.20;;
17820;SDS011;9035;42.554;23.188;2022-09-06T00:40:59;4.77;;;4.17;;
17820;SDS011;9035;42.554;23.188;2022-09-06T00:43:26;6.27;;;3.43;;
17820;SDS011;9035;42.554;23.188;2022-09-06T00:45:53;4.30;;;3.90;;
17820;SDS011;9035;42.554;23.188;2022-09-06T00:48:22;5.00;;;4.30;;
17820;SDS011;9035;42.554;23.188;2022-09-06T00:50:51;4.33;;;3.73;;
17820;SDS011;9035;42.554;23.188;2022-09-06T00:53:22;4.60;;;3.80;;
17820;SDS011;9035;42.554;23.188;2022-09-06T00:55:50;6.27;;;4.03;;
17820;SDS011;9035;42.554;23.188;2022-09-06T00:58:17;7.17;;;4.10;;
17820;SDS011;9035;42.554;23.188;2022-09-06T01:00:44;4.80;;;4.20;;
17820;SDS011;9035;42.554;23.188;2022-09-06T01:03:11;4.63;;;4.17;;
17820;SDS011;9035;42.554;23.188;2022-09-06T01:05:42;4.57;;;3.57;;
17820;SDS011;9035;42.554;23.188;2022-09-06T01:08:20;6.23;;;3.87;;
17820;SDS011;9035;42.554;23.188;2022-09-06T01:11:00;3.77;;;3.40;;
17820;SDS011;9035;42.554;23.188;2022-09-06T01:13:36;4.93;;;3.90;;
17820;SDS011;9035;42.554;23.188;2022-09-06T01:16:16;6.00;;;4.60;;
17820;SDS011;9035;42.554;23.188;2022-09-06T01:18:56;4.67;;;4.20;;
17820;SDS011;9035;42.554;23.188;2022-09-06T01:21:38;4.23;;;3.73;;
17820;SDS011;9035;42.554;23.188;2022-09-06T01:24:18;5.33;;;4.03;;
17820;SDS011;9035;42.554;23.188;2022-09-06T01:30:20;5.10;;;3.93;;
17820;SDS011;9035;42.554;23.188;2022-09-06T01:32:50;5.53;;;4.30;;
17820;SDS011;9035;42.554;23.188;2022-09-06T01:35:24;5.07;;;4.37;;
17820;SDS011;9035;42.554;23.188;2022-09-06T01:37:54;4.47;;;4.03;;
17820;SDS011;9035;42.554;23.188;2022-09-06T01:40:21;5.67;;;4.00;;
17820;SDS011;9035;42.554;23.188;2022-09-06T01:42:49;4.33;;;3.93;;
17820;SDS011;9035;42.554;23.188;2022-09-06T01:45:19;5.30;;;3.70;;
17820;SDS011;9035;42.554;23.188;2022-09-06T01:47:52;4.67;;;4.03;;
17820;SDS011;9035;42.554;23.188;2022-09-06T01:50:29;5.77;;;4.00;;
17820;SDS011;9035;42.554;23.188;2022-09-06T01:53:09;5.07;;;4.13;;
17820;SDS011;9035;42.554;23.188;2022-09-06T01:55:48;4.13;;;3.73;;
17820;SDS011;9035;42.554;23.188;2022-09-06T01:58:45;5.90;;;4.23;;
17820;SDS011;9035;42.554;23.188;2022-09-06T02:01:24;4.50;;;4.00;;
17820;SDS011;9035;42.554;23.188;2022-09-06T02:03:57;4.43;;;4.00;;
17820;SDS011;9035;42.554;23.188;2022-09-06T02:06:28;10.33;;;4.23;;
17820;SDS011;9035;42.554;23.188;2022-09-06T02:09:01;5.00;;;4.17;;
17820;SDS011;9035;42.554;23.188;2022-09-06T02:11:33;4.73;;;4.30;;
17820;SDS011;9035;42.554;23.188;2022-09-06T02:14:05;4.40;;;4.00;;
17820;SDS011;9035;42.554;23.188;2022-09-06T02:16:36;4.93;;;4.23;;
17820;SDS011;9035;42.554;23.188;2022-09-06T02:19:07;7.40;;;5.30;;
17820;SDS011;9035;42.554;23.188;2022-09-06T02:21:39;6.73;;;4.30;;
17820;SDS011;9035;42.554;23.188;2022-09-06T02:24:11;4.80;;;4.30;;
17820;SDS011;9035;42.554;23.188;2022-09-06T02:26:42;6.77;;;4.37;;
17820;SDS011;9035;42.554;23.188;2022-09-06T02:29:12;4.30;;;3.90;;
17820;SDS011;9035;42.554;23.188;2022-09-06T02:31:41;6.07;;;4.03;;
17820;SDS011;9035;42.554;23.188;2022-09-06T02:34:12;5.87;;;3.93;;
17820;SDS011;9035;42.554;23.188;2022-09-06T02:36:41;4.93;;;3.90;;
17820;SDS011;9035;42.554;23.188;2022-09-06T02:39:08;5.70;;;4.00;;
17820;SDS011;9035;42.554;23.188;2022-09-06T02:41:36;6.20;;;4.03;;
17820;SDS011;9035;42.554;23.188;2022-09-06T02:44:05;5.23;;;4.43;;
17820;SDS011;9035;42.554;23.188;2022-09-06T02:46:33;6.43;;;4.07;;
17820;SDS011;9035;42.554;23.188;2022-09-06T02:48:59;4.67;;;3.97;;
17820;SDS011;9035;42.554;23.188;2022-09-06T02:51:27;5.93;;;4.30;;
17820;SDS011;9035;42.554;23.188;2022-09-06T02:53:54;5.10;;;4.57;;
17820;SDS011;9035;42.554;23.188;2022-09-06T02:56:21;5.90;;;4.20;;
17820;SDS011;9035;42.554;23.188;2022-09-06T02:58:49;4.77;;;4.17;;
17820;SDS011;9035;42.554;23.188;2022-09-06T03:01:15;5.83;;;4.10;;
17820;SDS011;9035;42.554;23.188;2022-09-06T03:03:44;4.97;;;4.13;;
17820;SDS011;9035;42.554;23.188;2022-09-06T03:06:10;4.87;;;4.37;;
17820;SDS011;9035;42.554;23.188;2022-09-06T03:08:37;5.10;;;4.60;;
17820;SDS011;9035;42.554;23.188;2022-09-06T03:11:04;4.60;;;4.13;;
17820;SDS011;9035;42.554;23.188;2022-09-06T03:13:31;4.90;;;4.30;;
17820;SDS011;9035;42.554;23.188;2022-09-06T03:15:58;4.90;;;4.10;;
17820;SDS011;9035;42.554;23.188;2022-09-06T03:18:26;5.27;;;4.77;;
17820;SDS011;9035;42.554;23.188;2022-09-06T03:20:56;4.70;;;4.20;;
17820;SDS011;9035;42.554;23.188;2022-09-06T03:23:24;4.90;;;4.37;;
17820;SDS011;9035;42.554;23.188;2022-09-06T03:25:52;4.47;;;4.07;;
17820;SDS011;9035;42.554;23.188;2022-09-06T03:28:19;4.63;;;4.23;;
17820;SDS011;9035;42.554;23.188;2022-09-06T03:30:46;5.23;;;4.73;;
17820;SDS011;9035;42.554;23.188;2022-09-06T03:33:15;4.93;;;4.50;;
17820;SDS011;9035;42.554;23.188;2022-09-06T03:35:47;5.13;;;4.67;;
17820;SDS011;9035;42.554;23.188;2022-09-06T03:38:16;5.27;;;4.67;;
17820;SDS011;9035;42.554;23.188;2022-09-06T03:40:44;7.80;;;4.70;;
17820;SDS011;9035;42.554;23.188;2022-09-06T03:43:11;5.37;;;4.87;;
17820;SDS011;9035;42.554;23.188;2022-09-06T03:45:39;5.77;;;5.10;;
17820;SDS011;9035;42.554;23.188;2022-09-06T03:48:06;7.90;;;5.43;;
17820;SDS011;9035;42.554;23.188;2022-09-06T03:50:32;5.73;;;5.20;;
17820;SDS011;9035;42.554;23.188;2022-09-06T03:52:59;7.83;;;5.40;;
17820;SDS011;9035;42.554;23.188;2022-09-06T03:55:27;5.53;;;5.03;;
17820;SDS011;9035;42.554;23.188;2022-09-06T03:57:54;6.27;;;5.27;;
17820;SDS011;9035;42.554;23.188;2022-09-06T04:00:20;5.87;;;5.37;;
17820;SDS011;9035;42.554;23.188;2022-09-06T04:02:48;6.13;;;5.47;;
17820;SDS011;9035;42.554;23.188;2022-09-06T04:05:15;6.63;;;5.40;;
17820;SDS011;9035;42.554;23.188;2022-09-06T04:07:42;5.70;;;5.20;;
17820;SDS011;9035;42.554;23.188;2022-09-06T04:10:09;6.33;;;5.77;;
17820;SDS011;9035;42.554;23.188;2022-09-06T04:12:37;6.40;;;5.80;;
17820;SDS011;9035;42.554;23.188;2022-09-06T04:15:04;6.93;;;6.23;;
17820;SDS011;9035;42.554;23.188;2022-09-06T04:17:32;7.07;;;6.40;;
17820;SDS011;9035;42.554;23.188;2022-09-06T04:19:59;6.67;;;5.97;;
17820;SDS011;9035;42.554;23.188;2022-09-06T04:22:26;9.77;;;6.37;;
17820;SDS011;9035;42.554;23.188;2022-09-06T04:24:52;8.60;;;6.97;;
17820;SDS011;9035;42.554;23.188;2022-09-06T04:27:19;7.83;;;7.07;;
17820;SDS011;9035;42.554;23.188;2022-09-06T04:29:47;7.30;;;6.60;;
17820;SDS011;9035;42.554;23.188;2022-09-06T04:32:14;8.63;;;7.23;;
17820;SDS011;9035;42.554;23.188;2022-09-06T04:34:41;8.60;;;7.53;;
17820;SDS011;9035;42.554;23.188;2022-09-06T04:37:07;10.47;;;7.70;;
17820;SDS011;9035;42.554;23.188;2022-09-06T04:39:34;8.03;;;7.23;;
17820;SDS011;9035;42.554;23.188;2022-09-06T04:42:01;7.73;;;7.00;;
17820;SDS011;9035;42.554;23.188;2022-09-06T04:44:27;9.30;;;7.00;;
17820;SDS011;9035;42.554;23.188;2022-09-06T04:47:03;8.23;;;7.03;;
17820;SDS011;9035;42.554;23.188;2022-09-06T04:49:31;8.40;;;7.60;;
17820;SDS011;9035;42.554;23.188;2022-09-06T04:51:58;8.13;;;7.33;;
17820;SDS011;9035;42.554;23.188;2022-09-06T04:54:25;9.43;;;8.03;;
17820;SDS011;9035;42.554;23.188;2022-09-06T04:56:51;11.17;;;7.90;;
17820;SDS011;9035;42.554;23.188;2022-09-06T04:59:18;8.40;;;7.37;;
17820;SDS011;9035;42.554;23.188;2022-09-06T05:01:45;8.97;;;8.07;;
17820;SDS011;9035;42.554;23.188;2022-09-06T05:04:13;9.17;;;8.20;;
17820;SDS011;9035;42.554;23.188;2022-09-06T05:06:40;8.23;;;7.43;;
17820;SDS011;9035;42.554;23.188;2022-09-06T05:09:07;9.07;;;8.13;;
17820;SDS011;9035;42.554;23.188;2022-09-06T05:11:34;8.80;;;7.90;;
17820;SDS011;9035;42.554;23.188;2022-09-06T05:14:01;8.63;;;7.73;;
17820;SDS011;9035;42.554;23.188;2022-09-06T05:16:28;9.17;;;8.00;;
17820;SDS011;9035;42.554;23.188;2022-09-06T05:18:55;9.60;;;8.23;;
17820;SDS011;9035;42.554;23.188;2022-09-06T05:21:23;9.53;;;8.30;;
17820;SDS011;9035;42.554;23.188;2022-09-06T05:23:51;11.37;;;8.40;;
17820;SDS011;9035;42.554;23.188;2022-09-06T05:26:18;10.03;;;7.57;;
17820;SDS011;9035;42.554;23.188;2022-09-06T05:28:45;11.33;;;7.90;;
17820;SDS011;9035;42.554;23.188;2022-09-06T05:31:12;8.57;;;7.77;;
17820;SDS011;9035;42.554;23.188;2022-09-06T05:33:50;11.03;;;8.13;;
17820;SDS011;9035;42.554;23.188;2022-09-06T05:36:17;8.30;;;7.50;;
17820;SDS011;9035;42.554;23.188;2022-09-06T05:38:45;8.00;;;7.17;;
17820;SDS011;9035;42.554;23.188;2022-09-06T05:41:12;9.93;;;7.30;;
17820;SDS011;9035;42.554;23.188;2022-09-06T05:43:39;8.00;;;7.13;;
17820;SDS011;9035;42.554;23.188;2022-09-06T05:46:06;8.37;;;6.67;;
17820;SDS011;9035;42.554;23.188;2022-09-06T05:48:33;8.47;;;7.57;;
17820;SDS011;9035;42.554;23.188;2022-09-06T05:51:00;8.60;;;7.17;;
17820;SDS011;9035;42.554;23.188;2022-09-06T05:53:32;10.37;;;7.57;;
17820;SDS011;9035;42.554;23.188;2022-09-06T05:56:01;9.30;;;7.37;;
17820;SDS011;9035;42.554;23.188;2022-09-06T05:58:29;9.17;;;7.93;;
17820;SDS011;9035;42.554;23.188;2022-09-06T06:01:03;8.43;;;7.63;;
17820;SDS011;9035;42.554;23.188;2022-09-06T06:03:31;8.10;;;7.13;;
17820;SDS011;9035;42.554;23.188;2022-09-06T06:05:58;8.50;;;7.70;;
17820;SDS011;9035;42.554;23.188;2022-09-06T06:08:24;8.47;;;7.67;;
17820;SDS011;9035;42.554;23.188;2022-09-06T06:10:51;7.53;;;6.83;;
17820;SDS011;9035;42.554;23.188;2022-09-06T06:13:20;8.27;;;7.37;;
17820;SDS011;9035;42.554;23.188;2022-09-06T06:15:46;11.87;;;8.57;;
17820;SDS011;9035;42.554;23.188;2022-09-06T06:18:14;8.73;;;7.83;;
17820;SDS011;9035;42.554;23.188;2022-09-06T06:20:41;8.73;;;7.60;;
17820;SDS011;9035;42.554;23.188;2022-09-06T06:23:08;9.30;;;8.00;;
17820;SDS011;9035;42.554;23.188;2022-09-06T06:25:34;9.60;;;7.77;;
17820;SDS011;9035;42.554;23.188;2022-09-06T06:28:01;10.37;;;9.33;;
17820;SDS011;9035;42.554;23.188;2022-09-06T06:30:30;9.80;;;8.80;;
17820;SDS011;9035;42.554;23.188;2022-09-06T06:32:56;15.33;;;11.43;;
17820;SDS011;9035;42.554;23.188;2022-09-06T06:35:24;12.83;;;11.17;;
17820;SDS011;9035;42.554;23.188;2022-09-06T06:37:51;12.50;;;10.77;;
17820;SDS011;9035;42.554;23.188;2022-09-06T06:40:18;11.67;;;9.90;;
17820;SDS011;9035;42.554;23.188;2022-09-06T06:42:46;11.20;;;9.67;;
17820;SDS011;9035;42.554;23.188;2022-09-06T06:45:15;11.13;;;8.57;;
17820;SDS011;9035;42.554;23.188;2022-09-06T06:47:47;8.80;;;7.53;;
17820;SDS011;9035;42.554;23.188;2022-09-06T06:50:14;7.57;;;6.77;;
17820;SDS011;9035;42.554;23.188;2022-09-06T06:52:41;6.30;;;5.40;;
17820;SDS011;9035;42.554;23.188;2022-09-06T06:55:08;6.83;;;5.83;;
17820;SDS011;9035;42.554;23.188;2022-09-06T06:57:35;6.43;;;5.63;;
17820;SDS011;9035;42.554;23.188;2022-09-06T07:00:02;6.80;;;5.87;;
17820;SDS011;9035;42.554;23.188;2022-09-06T07:02:30;6.93;;;5.23;;
17820;SDS011;9035;42.554;23.188;2022-09-06T07:04:58;5.97;;;5.33;;
17820;SDS011;9035;42.554;23.188;2022-09-06T07:07:25;6.37;;;5.07;;
17820;SDS011;9035;42.554;23.188;2022-09-06T07:09:51;7.23;;;5.23;;
17820;SDS011;9035;42.554;23.188;2022-09-06T07:12:18;5.67;;;5.10;;
17820;SDS011;9035;42.554;23.188;2022-09-06T07:14:45;5.67;;;5.17;;
17820;SDS011;9035;42.554;23.188;2022-09-06T07:17:11;6.40;;;5.70;;
17820;SDS011;9035;42.554;23.188;2022-09-06T07:19:38;5.70;;;5.10;;
17820;SDS011;9035;42.554;23.188;2022-09-06T07:22:06;6.07;;;5.47;;
17820;SDS011;9035;42.554;23.188;2022-09-06T07:24:33;5.73;;;5.03;;
17820;SDS011;9035;42.554;23.188;2022-09-06T07:27:00;11.10;;;6.00;;
17820;SDS011;9035;42.554;23.188;2022-09-06T07:29:27;9.97;;;5.90;;
17820;SDS011;9035;42.554;23.188;2022-09-06T07:31:53;8.07;;;6.23;;
17820;SDS011;9035;42.554;23.188;2022-09-06T07:34:21;8.23;;;6.33;;
17820;SDS011;9035;42.554;23.188;2022-09-06T07:36:50;6.23;;;5.63;;
17820;SDS011;9035;42.554;23.188;2022-09-06T07:39:19;8.80;;;6.40;;
17820;SDS011;9035;42.554;23.188;2022-09-06T07:41:46;8.00;;;5.93;;
17820;SDS011;9035;42.554;23.188;2022-09-06T07:44:13;6.53;;;5.80;;
17820;SDS011;9035;42.554;23.188;2022-09-06T07:46:39;6.57;;;5.97;;
17820;SDS011;9035;42.554;23.188;2022-09-06T07:49:06;7.83;;;6.07;;
17820;SDS011;9035;42.554;23.188;2022-09-06T07:51:33;6.77;;;6.13;;
17820;SDS011;9035;42.554;23.188;2022-09-06T07:54:00;7.23;;;6.53;;
17820;SDS011;9035;42.554;23.188;2022-09-06T07:56:28;7.53;;;6.50;;
17820;SDS011;9035;42.554;23.188;2022-09-06T07:58:55;12.27;;;7.23;;
17820;SDS011;9035;42.554;23.188;2022-09-06T08:01:25;7.43;;;6.67;;
17820;SDS011;9035;42.554;23.188;2022-09-06T08:03:54;6.90;;;6.30;;
17820;SDS011;9035;42.554;23.188;2022-09-06T08:06:22;7.77;;;6.97;;
17820;SDS011;9035;42.554;23.188;2022-09-06T08:08:49;7.77;;;6.63;;
17820;SDS011;9035;42.554;23.188;2022-09-06T08:11:16;7.30;;;6.60;;
17820;SDS011;9035;42.554;23.188;2022-09-06T08:13:45;7.17;;;6.47;;
17820;SDS011;9035;42.554;23.188;2022-09-06T08:16:14;7.93;;;6.47;;
17820;SDS011;9035;42.554;23.188;2022-09-06T08:18:41;7.23;;;6.50;;
17820;SDS011;9035;42.554;23.188;2022-09-06T08:21:08;15.00;;;6.63;;
17820;SDS011;9035;42.554;23.188;2022-09-06T08:23:36;8.83;;;6.93;;
17820;SDS011;9035;42.554;23.188;2022-09-06T08:26:04;7.70;;;6.20;;
17820;SDS011;9035;42.554;23.188;2022-09-06T08:28:30;6.87;;;6.10;;
17820;SDS011;9035;42.554;23.188;2022-09-06T08:31:05;6.77;;;6.07;;
17820;SDS011;9035;42.554;23.188;2022-09-06T08:33:32;6.77;;;6.13;;
17820;SDS011;9035;42.554;23.188;2022-09-06T08:35:59;6.77;;;6.03;;
17820;SDS011;9035;42.554;23.188;2022-09-06T08:38:27;7.20;;;6.50;;
17820;SDS011;9035;42.554;23.188;2022-09-06T08:40:54;7.23;;;6.53;;
17820;SDS011;9035;42.554;23.188;2022-09-06T08:43:31;7.43;;;6.60;;
17820;SDS011;9035;42.554;23.188;2022-09-06T08:45:58;8.27;;;6.73;;
17820;SDS011;9035;42.554;23.188;2022-09-06T08:48:27;6.83;;;6.20;;
17820;SDS011;9035;42.554;23.188;2022-09-06T08:51:03;7.10;;;6.40;;
17820;SDS011;9035;42.554;23.188;2022-09-06T08:53:42;7.23;;;6.27;;
17820;SDS011;9035;42.554;23.188;2022-09-06T08:56:11;7.50;;;6.80;;
17820;SDS011;9035;42.554;23.188;2022-09-06T09:01:31;8.37;;;7.57;;
17820;SDS011;9035;42.554;23.188;2022-09-06T09:04:04;7.47;;;6.60;;
17820;SDS011;9035;42.554;23.188;2022-09-06T09:06:37;7.70;;;7.00;;
17820;SDS011;9035;42.554;23.188;2022-09-06T09:09:04;7.77;;;7.07;;
17820;SDS011;9035;42.554;23.188;2022-09-06T09:11:33;7.13;;;6.53;;
17820;SDS011;9035;42.554;23.188;2022-09-06T09:14:03;8.80;;;7.00;;
17820;SDS011;9035;42.554;23.188;2022-09-06T09:16:33;7.97;;;7.07;;
17820;SDS011;9035;42.554;23.188;2022-09-06T09:19:00;7.10;;;6.23;;
17820;SDS011;9035;42.554;23.188;2022-09-06T09:21:32;9.13;;;6.80;;
17820;SDS011;9035;42.554;23.188;2022-09-06T09:24:02;7.50;;;6.80;;
17820;SDS011;9035;42.554;23.188;2022-09-06T09:26:31;7.17;;;6.57;;
17820;SDS011;9035;42.554;23.188;2022-09-06T09:29:09;7.30;;;6.60;;
17820;SDS011;9035;42.554;23.188;2022-09-06T09:31:37;7.73;;;7.00;;
17820;SDS011;9035;42.554;23.188;2022-09-06T09:34:09;6.80;;;6.20;;
17820;SDS011;9035;42.554;23.188;2022-09-06T09:36:39;7.67;;;6.97;;
17820;SDS011;9035;42.554;23.188;2022-09-06T09:39:09;6.73;;;6.13;;
17820;SDS011;9035;42.554;23.188;2022-09-06T09:41:37;10.13;;;7.10;;
17820;SDS011;9035;42.554;23.188;2022-09-06T09:44:07;7.80;;;7.07;;
17820;SDS011;9035;42.554;23.188;2022-09-06T09:46:36;7.97;;;7.27;;
17820;SDS011;9035;42.554;23.188;2022-09-06T09:49:05;7.20;;;6.50;;
17820;SDS011;9035;42.554;23.188;2022-09-06T09:51:34;7.03;;;6.40;;
17820;SDS011;9035;42.554;23.188;2022-09-06T09:54:04;7.10;;;6.27;;
17820;SDS011;9035;42.554;23.188;2022-09-06T09:56:34;8.20;;;6.73;;
17820;SDS011;9035;42.554;23.188;2022-09-06T09:59:18;8.93;;;6.53;;
17820;SDS011;9035;42.554;23.188;2022-09-06T10:01:48;6.97;;;6.37;;
17820;SDS011;9035;42.554;23.188;2022-09-06T10:04:18;8.80;;;6.73;;
17820;SDS011;9035;42.554;23.188;2022-09-06T10:06:49;7.37;;;6.67;;
17820;SDS011;9035;42.554;23.188;2022-09-06T10:09:21;7.17;;;6.57;;
17820;SDS011;9035;42.554;23.188;2022-09-06T10:11:58;10.90;;;7.27;;
17820;SDS011;9035;42.554;23.188;2022-09-06T10:14:27;7.10;;;6.40;;
17820;SDS011;9035;42.554;23.188;2022-09-06T10:16:56;13.33;;;7.33;;
17820;SDS011;9035;42.554;23.188;2022-09-06T10:19:33;7.60;;;6.67;;
17820;SDS011;9035;42.554;23.188;2022-09-06T10:22:07;7.83;;;6.50;;
17820;SDS011;9035;42.554;23.188;2022-09-06T10:24:48;11.20;;;6.93;;
17820;SDS011;9035;42.554;23.188;2022-09-06T10:27:30;7.00;;;6.40;;
17820;SDS011;9035;42.554;23.188;2022-09-06T10:29:59;7.57;;;6.50;;
17820;SDS011;9035;42.554;23.188;2022-09-06T10:32:40;7.60;;;6.90;;
17820;SDS011;9035;42.554;23.188;2022-09-06T10:35:14;7.30;;;6.60;;
17820;SDS011;9035;42.554;23.188;2022-09-06T10:37:51;7.63;;;6.83;;
17820;SDS011;9035;42.554;23.188;2022-09-06T10:40:36;8.13;;;6.57;;
17820;SDS011;9035;42.554;23.188;2022-09-06T10:43:11;8.20;;;6.27;;
17820;SDS011;9035;42.554;23.188;2022-09-06T10:45:44;6.83;;;6.23;;
17820;SDS011;9035;42.554;23.188;2022-09-06T10:48:17;6.77;;;6.10;;
17820;SDS011;9035;42.554;23.188;2022-09-06T10:50:50;9.63;;;6.27;;
17820;SDS011;9035;42.554;23.188;2022-09-06T10:53:38;8.10;;;5.63;;
17820;SDS011;9035;42.554;23.188;2022-09-06T10:56:14;7.03;;;5.40;;
17820;SDS011;9035;42.554;23.188;2022-09-06T10:58:45;6.00;;;5.30;;
17820;SDS011;9035;42.554;23.188;2022-09-06T11:01:22;6.53;;;4.90;;
17820;SDS011;9035;42.554;23.188;2022-09-06T11:03:56;7.10;;;5.10;;
17820;SDS011;9035;42.554;23.188;2022-09-06T11:06:26;8.03;;;4.53;;
17820;SDS011;9035;42.554;23.188;2022-09-06T11:08:56;4.40;;;4.00;;
17820;SDS011;9035;42.554;23.188;2022-09-06T11:11:32;4.00;;;3.70;;
17820;SDS011;9035;42.554;23.188;2022-09-06T11:14:06;4.60;;;4.20;;
17820;SDS011;9035;42.554;23.188;2022-09-06T11:16:38;7.57;;;4.67;;
17820;SDS011;9035;42.554;23.188;2022-09-06T11:19:11;4.27;;;3.87;;
17820;SDS011;9035;42.554;23.188;2022-09-06T11:21:49;4.73;;;4.33;;
17820;SDS011;9035;42.554;23.188;2022-09-06T11:24:33;4.50;;;4.03;;
17820;SDS011;9035;42.554;23.188;2022-09-06T11:27:20;4.53;;;3.93;;
17820;SDS011;9035;42.554;23.188;2022-09-06T11:29:58;4.20;;;3.83;;
17820;SDS011;9035;42.554;23.188;2022-09-06T11:32:31;4.30;;;3.90;;
17820;SDS011;9035;42.554;23.188;2022-09-06T11:35:03;3.50;;;3.20;;
17820;SDS011;9035;42.554;23.188;2022-09-06T11:37:35;3.38;;;3.08;;
17820;SDS011;9035;42.554;23.188;2022-09-06T11:40:05;3.30;;;3.00;;
17820;SDS011;9035;42.554;23.188;2022-09-06T11:42:40;3.10;;;2.90;;
17820;SDS011;9035;42.554;23.188;2022-09-06T11:45:41;3.80;;;3.20;;
17820;SDS011;9035;42.554;23.188;2022-09-06T11:51:02;3.22;;;3.00;;
17820;SDS011;9035;42.554;23.188;2022-09-06T11:53:33;2.95;;;2.25;;
17820;SDS011;9035;42.554;23.188;2022-09-06T11:56:24;3.65;;;2.28;;
17820;SDS011;9035;42.554;23.188;2022-09-06T11:58:56;3.03;;;2.33;;
17820;SDS011;9035;42.554;23.188;2022-09-06T12:01:32;3.72;;;2.58;;
17820;SDS011;9035;42.554;23.188;2022-09-06T12:04:04;3.38;;;2.47;;
17820;SDS011;9035;42.554;23.188;2022-09-06T12:06:34;4.43;;;2.90;;
17820;SDS011;9035;42.554;23.188;2022-09-06T12:09:24;2.80;;;2.60;;
17820;SDS011;9035;42.554;23.188;2022-09-06T12:11:56;3.28;;;2.97;;
17820;SDS011;9035;42.554;23.188;2022-09-06T12:14:30;3.20;;;3.00;;
17820;SDS011;9035;42.554;23.188;2022-09-06T12:19:50;3.25;;;3.03;;
17820;SDS011;9035;42.554;23.188;2022-09-06T12:25:26;2.80;;;2.17;;
17820;SDS011;9035;42.554;23.188;2022-09-06T12:28:22;3.00;;;2.40;;
17820;SDS011;9035;42.554;23.188;2022-09-06T12:30:58;2.70;;;2.50;;
17820;SDS011;9035;42.554;23.188;2022-09-06T12:33:28;2.35;;;2.15;;
17820;SDS011;9035;42.554;23.188;2022-09-06T12:36:12;2.63;;;2.42;;
17820;SDS011;9035;42.554;23.188;2022-09-06T12:38:52;2.22;;;2.13;;
17820;SDS011;9035;42.554;23.188;2022-09-06T12:41:20;2.13;;;2.00;;
17820;SDS011;9035;42.554;23.188;2022-09-06T12:43:47;2.40;;;2.10;;
17820;SDS011;9035;42.554;23.188;2022-09-06T12:46:16;2.70;;;2.25;;
17820;SDS011;9035;42.554;23.188;2022-09-06T12:48:44;2.47;;;2.22;;
17820;SDS011;9035;42.554;23.188;2022-09-06T12:51:25;2.00;;;1.90;;
17820;SDS011;9035;42.554;23.188;2022-09-06T12:53:52;3.10;;;2.30;;
17820;SDS011;9035;42.554;23.188;2022-09-06T12:56:21;1.95;;;1.85;;
17820;SDS011;9035;42.554;23.188;2022-09-06T12:58:49;5.03;;;1.60;;
17820;SDS011;9035;42.554;23.188;2022-09-06T13:01:18;2.63;;;1.90;;
17820;SDS011;9035;42.554;23.188;2022-09-06T13:03:51;1.90;;;1.80;;
17820;SDS011;9035;42.554;23.188;2022-09-06T13:06:22;2.97;;;1.90;;
17820;SDS011;9035;42.554;23.188;2022-09-06T13:08:52;3.92;;;1.65;;
17820;SDS011;9035;42.554;23.188;2022-09-06T13:11:21;3.22;;;2.13;;
17820;SDS011;9035;42.554;23.188;2022-09-06T13:13:53;4.20;;;2.03;;
17820;SDS011;9035;42.554;23.188;2022-09-06T13:16:22;4.70;;;1.90;;
17820;SDS011;9035;42.554;23.188;2022-09-06T13:18:50;2.38;;;1.77;;
17820;SDS011;9035;42.554;23.188;2022-09-06T13:21:25;1.90;;;1.80;;
17820;SDS011;9035;42.554;23.188;2022-09-06T13:23:55;5.95;;;5.35;;
17820;SDS011;9035;42.554;23.188;2022-09-06T13:26:33;2.38;;;2.17;;
17820;SDS011;9035;42.554;23.188;2022-09-06T13:29:10;3.70;;;2.30;;
17820;SDS011;9035;42.554;23.188;2022-09-06T13:31:48;2.00;;;1.90;;
17820;SDS011;9035;42.554;23.188;2022-09-06T13:34:20;4.32;;;2.15;;
17820;SDS011;9035;42.554;23.188;2022-09-06T13:36:48;4.03;;;2.30;;
17820;SDS011;9035;42.554;23.188;2022-09-06T13:39:29;2.50;;;2.30;;
17820;SDS011;9035;42.554;23.188;2022-09-06T13:41:59;2.05;;;1.85;;
17820;SDS011;9035;42.554;23.188;2022-09-06T13:44:27;2.20;;;2.05;;
17820;SDS011;9035;42.554;23.188;2022-09-06T13:46:57;2.58;;;2.28;;
17820;SDS011;9035;42.554;23.188;2022-09-06T13:49:24;2.28;;;1.90;;
17820;SDS011;9035;42.554;23.188;2022-09-06T13:51:52;2.92;;;2.28;;
17820;SDS011;9035;42.554;23.188;2022-09-06T13:54:22;2.45;;;2.25;;
17820;SDS011;9035;42.554;23.188;2022-09-06T13:56:49;2.50;;;2.30;;
17820;SDS011;9035;42.554;23.188;2022-09-06T13:59:16;2.10;;;1.90;;
17820;SDS011;9035;42.554;23.188;2022-09-06T14:01:43;2.00;;;1.90;;
17820;SDS011;9035;42.554;23.188;2022-09-06T14:04:14;2.72;;;2.22;;
17820;SDS011;9035;42.554;23.188;2022-09-06T14:06:45;2.30;;;1.95;;
17820;SDS011;9035;42.554;23.188;2022-09-06T14:09:13;3.30;;;1.92;;
17820;SDS011;9035;42.554;23.188;2022-09-06T14:11:39;3.55;;;2.13;;
17820;SDS011;9035;42.554;23.188;2022-09-06T14:14:07;2.53;;;2.33;;
17820;SDS011;9035;42.554;23.188;2022-09-06T14:16:35;4.57;;;2.17;;
17820;SDS011;9035;42.554;23.188;2022-09-06T14:19:02;2.47;;;2.25;;
17820;SDS011;9035;42.554;23.188;2022-09-06T14:21:31;2.78;;;2.22;;
17820;SDS011;9035;42.554;23.188;2022-09-06T14:23:59;3.08;;;2.20;;
17820;SDS011;9035;42.554;23.188;2022-09-06T14:26:26;2.33;;;2.10;;
17820;SDS011;9035;42.554;23.188;2022-09-06T14:28:53;3.53;;;2.45;;
17820;SDS011;9035;42.554;23.188;2022-09-06T14:31:21;2.55;;;2.35;;
17820;SDS011;9035;42.554;23.188;2022-09-06T14:33:50;3.05;;;2.30;;
17820;SDS011;9035;42.554;23.188;2022-09-06T14:36:18;2.50;;;2.30;;
17820;SDS011;9035;42.554;23.188;2022-09-06T14:38:47;2.92;;;2.25;;
17820;SDS011;9035;42.554;23.188;2022-09-06T14:41:15;4.32;;;2.40;;
17820;SDS011;9035;42.554;23.188;2022-09-06T14:43:45;3.67;;;2.00;;
17820;SDS011;9035;42.554;23.188;2022-09-06T14:46:14;4.75;;;2.80;;
17820;SDS011;9035;42.554;23.188;2022-09-06T14:48:43;3.10;;;2.80;;
17820;SDS011;9035;42.554;23.188;2022-09-06T14:51:12;2.47;;;2.28;;
17820;SDS011;9035;42.554;23.188;2022-09-06T14:53:42;2.38;;;2.17;;
17820;SDS011;9035;42.554;23.188;2022-09-06T14:56:12;4.28;;;2.22;;
17820;SDS011;9035;42.554;23.188;2022-09-06T14:58:39;3.28;;;2.42;;
17820;SDS011;9035;42.554;23.188;2022-09-06T15:01:07;2.50;;;2.28;;
17820;SDS011;9035;42.554;23.188;2022-09-06T15:03:35;2.45;;;2.25;;
17820;SDS011;9035;42.554;23.188;2022-09-06T15:06:02;2.60;;;2.40;;
17820;SDS011;9035;42.554;23.188;2022-09-06T15:08:29;2.93;;;2.10;;
17820;SDS011;9035;42.554;23.188;2022-09-06T15:10:56;2.63;;;2.17;;
17820;SDS011;9035;42.554;23.188;2022-09-06T15:13:25;3.43;;;2.30;;
17820;SDS011;9035;42.554;23.188;2022-09-06T15:15:52;2.23;;;1.87;;
17820;SDS011;9035;42.554;23.188;2022-09-06T15:18:19;3.97;;;2.13;;